Aeroporto :
LOGIN :

Iscrizione | Disclaimer

   EN    FR    IT 

 










Sommario :    VFR   VFR Marginale   IFR   IFR Intensivo   IFR Molto Intensivo
Visibilità : 
Base nubi : 
>= 8 km
>= 3000ft
5 / 8 km
1000 / 3000 ft
1500m / 5 km
500 / 1000 ft
800 / 1500m
200 / 500 ft
< 800m
< 200 ft
Simboli :   Temporali  Nebbia  Neve Forte  Precipitazioni Forti  Vento > 20 kt
SIGMETs :   Varie  Temporali  Ghiacco  Turbolenza  Onda orograficha  Ceneri Vulcaniche






- Altitudine del aeroporto : 1487 ft
- Codice IATA : MUC


EDDM - München Franz Josef Strauss

ULTIMO METAR :
  • 090120Z 26017KT 9999 -RA SCT023 BKN045 10/05 Q1006 NOSIG

METARs OBSOLETI :
  • 090050Z 25024KT 9999 BKN040 10/05 Q1006 NOSIG
  • 090020Z 25023KT 9999 SCT046 11/05 Q1006 NOSIG
  • 082350Z 25023G33KT 9999 SCT046 10/06 Q1006 NOSIG
  • 082320Z 25022G34KT 9999 BKN043 10/05 Q1006 NOSIG
  • 082250Z 26011KT 9999 SCT043 10/04 Q1006 BECMG 24015G25KT

TAF TAF EDDM
Valido dal 09 a 00 ore il 10 a 06 ore UTC


082300Z 0900/1006 25015G30KT 9999 BKN025
PROB30
TEMPO 0900/0903 27020G35KT 4000 RADZ
BECMG 0902/0904 24012KT
BECMG 0909/0911 25015G30KT
PROB30
TEMPO 0911/0917 26025G40KT SHRA BKN025TCU
TEMPO 0917/0921 4000 RADZ BKN014
BECMG 0920/0922 30012KT
PROB30
TEMPO 1001/1006 3000 SHSN BKN020TCU



MetMap, La meteo Aeronautica in un colpo d'occhio ! - Copyright ORBIFLY Dicembre 2007 - Disclaimer

ORBIFLY MET'MAP TEAM :

Programmazione e sviluppo : Alexandra Zaïnal
Concezione : Baudouin d'Aumeries
Aiuto per la programmazione : Marc-Olivier Méhu
Supporto tecnico e logistico : Manuel Goepfert
Aiuto per la traduzione : Arnaldo La Scala

Contatto : metmap@orbifly.com




FONTI E CREDITI :

   NOAA